Weather at Los Fresnos Heliport

Public forecast

Using degrees Celsius for public forecast. Weather courtesy of forecast.io.

Closest aviation weather report (METAR) to Los Fresnos Heliport

Closest report is San Fernando Airport, 28.3 nm (52.3 km) ESE.

2024/05/28 01:43 (retrieved 7 minutes ago)

SADF 280143Z 21012KT 180V240 6000 -DZ OVC009 09/07 Q1026

Closest aviation forecast (TAF) to Los Fresnos Heliport

Forecast is more than 6 hours old.

Closest forecast is Rubem Berta Airport, 290.1 nm (537.3 km) NNE.

2024/05/27 18:00 (retrieved 8 hours ago)

TAF SBUG 271500Z 2718/2806 21012KT 9999 BKN010 TX10/2718Z TN07/2806Z BECMG 2719/2721 SCT015 BECMG 2802/2804 BKN008 RMK PDW